Detall de PIREP

Printer-friendly versionPDF version

[2018/02/28 12:01:00]
Flight IATA:CT0001
Pilot Number:012
Company ICAO:CAT
Aircraft Type:B738/F
PAX:160
Departing Airport: LEBL
Destination Airport: LEPA
Alternate Airport:LEBL
Online: VATSIM
Route:LARPA B31 TOLSO
Flight Level:F170
No Slew and time accel
No pause
Crash detect
Detect pilot in Cockpit between each 30 and 45 minutes
12:01 Zero fuel Weight: 118701 Lbs, Fuel Weight: 46060 Lbs
12:01 VATSIM:LEBL 281530Z 33009KT 9000 -RA FEW009 BKN012 OVC025 05/04 Q0999 NOSIG
12:01 VATSIM:LEPA 281530Z 20010KT 160V230 6000 SCT015 BKN025 15/13 Q1000 NOSIG
12:18 Parking Brakes off
12:23 Take-off
12:23 Take off Weight: 133112 Lbs
12:23 Wind: 295º @ 005 Knots Heading: 246º
12:23 POS N41º 17´ 04´´ E002º 04´ 53´´
12:23 Gear Up: 169 Knots
12:23 Flaps:3 at 170 Knots
12:23 Flaps:2 at 198 Knots
12:23 Flaps:1 at 199 Knots
12:23 Flaps:0 at 208 Knots
12:33 TOC
12:33 Fuel Weight: 7172 Lb
12:34 TOD
12:34 Fuel Weight: 7117 Lb
12:38 Wind:340º@022 Knots Heading: 133º Ground Speed: 298 Knots Altitude 10101 ft
12:42 Flaps:1 at 207 Knots
12:42 Flaps:2 at 208 Knots
12:43 Flaps:3 at 206 Knots
12:43 Gear Down: 204 Knots
12:44 Flaps:4 at 172 Knots
12:46 Flaps:5 at 167 Knots
12:47 Flaps:6 at 145 Knots
12:47 Flaps:7 at 144 Knots
12:47 Flaps:8 at 144 Knots
12:51 TouchDown:Rate -191 ft/min Speed: 127 Knots
12:51 VATSIM:LEPA 281630Z 19009KT 150V230 9000 FEW015 15/13 Q0999 NOSIG
12:51 Land
12:51 Wind:262º@013 Knots
12:51 Heading: 236º
12:51 Flight Duration: 00:28
12:51 Landing Weight: 129624 Lbs
12:51 POS N39º 32´ 56´´ E002º 44´ 52´´
12:54 Parking brakes on
12:54 Block to Block Duration: 00:36
12:54 Final Fuel: 5562 Lbls
12:54 Spent Fuel: 40498 Lbls
12:54 Flight Length: 133 NM
12:54 TOD Land Length: 67 NM

Exportar CSV

Powered by Drupal - Modified by Danger4k